YCBG weather

Hobart Cambridge Airport
Tasmania, Australia

Public forecast

Using degrees Celsius for public forecast. Weather courtesy of forecast.io.

METAR (pilot weather report)

Closest report is Hobart International Airport, 1.6 nm (3.0 km) ESE. Retrieved 2017/07/27 20:00 UTC (16 seconds ago):

YMHB 272000Z 29006KT 9999 FEW025 SCT045 06/03 Q1007 RF00.0/000.4

TAF (pilot weather forecast)

Closest forecast is Hobart International Airport, 1.6 nm (3.0 km) ESE. Retrieved 2017/07/27 18:36 UTC (1 hour ago):

TAF YMHB 271708Z 2718/2818 35008KT 9999 -RA FEW025 SCT040 FM272100 33012KT 9999 -SHRA FEW020 BKN030 FM280200 22012KT 9999 SCT030 SCT040 FM280900 34008KT 9999 FEW030